MST,Max TemperatureF,Mean TemperatureF,Min TemperatureF,Max Dew PointF,MeanDew PointF,Min DewpointF,Max Humidity, Mean Humidity, Min Humidity, Max Sea Level PressureIn, Mean Sea Level PressureIn, Min Sea Level PressureIn, Max VisibilityMiles, Mean VisibilityMiles, Min VisibilityMiles, Max Wind SpeedMPH, Mean Wind SpeedMPH, Max Gust SpeedMPH,PrecipitationIn, CloudCover, Events, WindDirDegrees
2014-1-1,33,25,16,26,20,11,100,83,65,30.37,30.18,29.99,10,8,0,13,5,15,T,2,Fog,190
2014-1-2,35,22,9,19,12,8,92,73,53,30.38,30.26,30.08,10,10,9,14,4,16,0.00,0,,118
2014-1-3,50,34,17,27,21,12,100,66,32,30.03,29.79,29.59,10,6,0,33,9,47,0.14,5,Fog-Snow,83
2014-1-4,21,13,5,19,14,0,100,87,74,30.23,30.01,29.84,10,5,0,10,4,12,0.32,6,Fog-Snow,155
2014-1-5,8,-2,-12,3,-3,-15,87,78,69,30.69,30.38,30.08,10,6,0,16,5,19,0.01,6,Fog-Snow,325
2014-1-6,16,0,-17,1,-8,-16,100,88,75,30.68,30.55,30.37,10,10,8,10,2,11,0.00,0,,214
2014-1-7,23,11,-1,13,6,-2,87,80,73,30.34,30.21,30.06,10,9,6,12,4,14,0.00,1,,291
2014-1-8,21,14,6,13,10,6,100,87,73,30.18,30.13,30.06,10,8,5,12,2,12,0.00,0,,344
2014-1-9,36,23,10,18,12,6,92,64,36,30.01,29.86,29.72,10,10,7,22,5,28,0.00,0,,235
2014-1-10,40,26,12,20,11,3,67,51,35,29.98,29.82,29.68,10,10,10,15,6,17,0.00,1,,177
2014-1-11,52,35,17,32,23,11,70,53,35,29.96,29.73,29.49,10,10,7,49,13,66,T,3,Rain-Snow,238
2014-1-12,38,31,23,19,10,5,89,58,27,29.99,29.75,29.53,10,10,10,32,15,39,0.00,1,,280
2014-1-13,43,33,22,24,17,11,68,54,40,30.10,29.99,29.94,10,10,10,29,7,35,0.00,0,,167
2014-1-14,39,30,20,22,18,13,88,66,43,30.50,30.38,30.12,10,10,10,24,5,37,0.00,1,,106
2014-1-15,51,36,21,18,15,9,77,50,23,30.32,30.18,30.05,10,10,10,31,11,41,0.00,0,,304
2014-1-16,39,30,21,20,15,9,74,51,27,30.41,30.32,30.19,10,10,10,13,6,17,0.00,0,,237
2014-1-17,48,34,19,25,18,14,77,54,31,30.31,30.22,30.08,10,10,10,13,3,14,0.00,0,,244
2014-1-18,46,34,22,26,19,15,74,54,34,30.36,30.25,30.17,10,10,9,13,4,14,0.00,0,,314
2014-1-19,46,34,21,25,18,9,81,57,32,30.17,30.09,30.00,10,10,10,17,5,19,0.00,0,,210
2014-1-20,41,31,21,22,18,13,81,60,38,30.48,30.36,30.07,10,10,10,22,5,26,0.00,2,,110
2014-1-21,49,33,17,22,15,4,74,52,29,30.35,30.27,30.16,10,10,10,14,5,15,0.00,0,,304
2014-1-22,36,28,19,28,23,13,100,74,47,30.38,30.19,30.09,10,5,1,14,4,17,0.13,5,Snow,13
2014-1-23,25,16,7,22,13,6,100,84,68,30.61,30.43,30.28,10,5,0,8,3,10,0.00,2,Fog,335
2014-1-24,39,24,9,26,17,8,92,76,59,30.54,30.44,30.32,10,8,6,14,2,16,0.00,0,,289
2014-1-25,44,32,19,28,23,17,92,74,55,30.36,30.19,30.03,10,10,7,8,2,11,0.00,0,,26
2014-1-26,42,30,18,27,20,9,88,66,44,30.26,30.06,29.91,10,7,2,20,8,26,0.01,5,Snow,71
2014-1-27,22,14,6,12,7,-3,92,72,51,30.37,30.23,30.09,10,9,4,9,4,12,T,5,Snow,113
2014-1-28,26,16,5,10,3,-6,76,61,45,30.38,30.27,30.08,10,10,10,9,2,10,0.00,0,,76
2014-1-29,47,31,14,31,19,7,82,61,40,30.06,29.72,29.42,10,10,10,32,8,46,T,1,,321
2014-1-30,40,30,19,24,19,16,91,66,40,29.82,29.66,29.53,10,10,10,18,7,21,0.00,4,,24
2014-1-31,31,24,17,17,15,8,92,73,53,29.86,29.80,29.72,10,10,10,13,4,17,0.00,5,,59